Navarino, Wisconsin
Current Conditions -  °F | °C
As of 11:55 PM on Monday 26 Jan 2015 (Local Time) from KEZS Reporting Station
Light Snow Light Snow  
Wind Chill: -4°   Ceiling: 1300
Heat Index: -4°   Visibility: 7mi
Dew Point: -6°   Wind: 3mph
Humidity: 89%   Direction: 40°NE
Pressure: 29.96"   Gusts: NA
Location:  44.7353°N, 88.4379°W
Report Text: KEZS 270555Z AUTO 04003KT 7SM -SN OVC013 M04/M05 A2996 RMK AO2 60004 T10401055 11032 21040 410301126
Loading
Personal Weather Stations






























Interactive Weather Map New forecast layout! Learn more

10-Day Weather Forecast

Advertisements
Track Severe Weather on mobile